Time;durP1;ratioP1;P1;durP2;ratioP2;P2;SDS_P1;SDS_P2;PMS_P1;PMS_P2;Temp;Humidity;BMP_temperature;BMP_pressure;BME280_temperature;BME280_humidity;BME280_pressure;Samples;Min_cycle;Max_cycle;Signal;HPM_P1;HPM_P2
2022/10/20 00:01:19;;;;;;;9.57;2.90;;;;;;;12.93;75.14;99757.28;5064195;27;20487;-42
2022/10/20 00:03:47;;;;;;;10.80;5.05;;;;;;;12.95;74.97;99752.94;5055775;28;20127;-44
2022/10/20 00:06:19;;;;;;;9.85;3.85;;;;;;;12.92;74.63;99753.84;5060500;28;20048;-43
2022/10/20 00:08:46;;;;;;;7.72;2.65;;;;;;;12.93;74.03;99744.28;5058298;28;20464;-43
2022/10/20 00:11:15;;;;;;;10.15;2.80;;;;;;;12.95;74.67;99748.59;5050373;28;20791;-42
2022/10/20 00:13:44;;;;;;;17.77;4.97;;;;;;;12.96;73.76;99745.13;5057611;28;20087;-43
2022/10/20 00:16:11;;;;;;;13.98;4.80;;;;;;;12.97;74.93;99735.59;5056561;28;20132;-42
2022/10/20 00:18:39;;;;;;;6.30;2.85;;;;;;;12.97;74.14;99730.38;5049679;28;20467;-43
2022/10/20 00:21:09;;;;;;;12.07;4.05;;;;;;;12.99;74.78;99726.00;5057101;28;20081;-42
2022/10/20 00:23:38;;;;;;;13.05;4.72;;;;;;;12.98;74.48;99711.28;5049522;28;20064;-43
2022/10/20 00:26:13;;;;;;;15.07;4.70;;;;;;;13.00;74.72;99712.09;5049574;28;20045;-43
2022/10/20 00:28:42;;;;;;;12.32;5.03;;;;;;;13.00;74.59;99698.28;5042834;28;20063;-42
2022/10/20 00:31:11;;;;;;;10.48;4.20;;;;;;;13.02;74.83;99692.16;5059880;28;20053;-43
2022/10/20 00:33:40;;;;;;;13.38;4.85;;;;;;;13.03;74.47;99683.47;5051620;28;20485;-44
2022/10/20 00:36:12;;;;;;;16.80;5.22;;;;;;;13.05;75.23;99693.84;5056621;28;20049;-43
2022/10/20 00:38:40;;;;;;;15.55;4.60;;;;;;;13.03;75.19;99683.47;5045540;28;20064;-44
2022/10/20 00:41:08;;;;;;;10.15;2.75;;;;;;;13.07;74.96;99672.13;5050699;28;20437;-48
2022/10/20 00:43:49;;;;;;;16.23;5.10;;;;;;;13.05;74.66;99676.50;5058511;28;20077;-43
2022/10/20 00:46:24;;;;;;;15.38;5.32;;;;;;;13.08;74.31;99688.59;5058524;28;20523;-43
2022/10/20 00:48:55;;;;;;;20.02;5.13;;;;;;;13.09;74.41;99691.16;5051849;28;20471;-42
2022/10/20 00:51:25;;;;;;;16.50;5.95;;;;;;;13.10;74.86;99695.47;5053705;28;20135;-42
2022/10/20 00:53:57;;;;;;;15.30;5.30;;;;;;;13.06;75.24;99678.22;5052459;28;20159;-42
2022/10/20 00:56:24;;;;;;;12.95;5.22;;;;;;;13.09;74.72;99678.16;5057014;28;20412;-42
2022/10/20 00:58:50;;;;;;;11.57;5.50;;;;;;;13.08;76.05;99666.00;5060172;28;20120;-43
2022/10/20 01:01:17;;;;;;;14.88;5.80;;;;;;;13.07;75.82;99664.31;5057841;28;20124;-43
2022/10/20 01:03:47;;;;;;;14.75;6.10;;;;;;;13.10;74.73;99659.06;5058879;28;20049;-44
2022/10/20 01:06:16;;;;;;;;;;;;;;;12.96;75.67;99641.13;5054514;28;20055;-42
2022/10/20 01:08:50;;;;;;;12.48;4.50;;;;;;;13.05;75.30;99628.84;5037304;28;20363;-44
2022/10/20 01:14:22;;;;;;;15.15;4.47;;;;;;;13.00;77.00;99635.88;5111022;27;20142;-43
2022/10/20 01:23:21;;;;;;;17.38;4.13;;;;;;;13.17;76.42;99635.56;5071268;28;20142;-43
2022/10/20 01:28:38;;;;;;;13.95;4.70;;;;;;;13.17;76.17;99633.78;5080299;27;20124;-45
2022/10/20 01:31:19;;;;;;;17.10;4.68;;;;;;;13.20;77.10;99636.31;5059737;28;20416;-43
2022/10/20 01:33:55;;;;;;;18.42;4.18;;;;;;;13.09;77.46;99631.34;5055070;28;20166;-42
2022/10/20 01:41:45;;;;;;;18.25;6.93;;;;;;;13.15;77.07;99634.72;5088915;27;20211;-43
2022/10/20 01:44:15;;;;;;;14.73;5.68;;;;;;;13.17;76.90;99643.34;5020401;28;20563;-43
2022/10/20 01:46:44;;;;;;;15.15;5.30;;;;;;;13.17;77.69;99636.38;5038670;28;20049;-42
2022/10/20 01:49:13;;;;;;;22.17;5.53;;;;;;;13.14;78.13;99638.19;5032116;28;20137;-43
2022/10/20 01:51:39;;;;;;;13.10;5.55;;;;;;;13.14;78.02;99648.59;5038123;28;20045;-42
2022/10/20 01:54:23;;;;;;;24.08;6.80;;;;;;;13.13;77.96;99650.34;5036820;28;20045;-42
2022/10/20 02:00:05;;;;;;;24.15;7.72;;;;;;;13.41;77.15;99641.97;5090136;27;20385;-42
2022/10/20 02:08:40;;;;;;;12.85;4.38;;;;;;;13.23;78.75;99612.88;5115496;27;20137;-42
2022/10/20 02:11:15;;;;;;;15.82;5.80;;;;;;;13.23;78.11;99612.00;5041394;28;20057;-43
2022/10/20 02:13:42;;;;;;;22.05;6.07;;;;;;;13.28;78.11;99604.97;5044229;28;20538;-43
2022/10/20 02:16:15;;;;;;;23.85;5.90;;;;;;;13.33;77.44;99592.72;5044299;28;20145;-43
2022/10/20 02:18:44;;;;;;;19.80;7.32;;;;;;;13.25;78.59;99589.44;5042670;28;20118;-42
2022/10/20 02:21:11;;;;;;;20.80;6.93;;;;;;;13.35;77.95;99593.53;5043748;28;20049;-43
2022/10/20 02:23:42;;;;;;;18.77;5.65;;;;;;;13.35;78.29;99590.94;5042220;28;20124;-42
2022/10/20 02:26:13;;;;;;;18.23;6.38;;;;;;;13.29;78.60;99591.06;5040127;28;20085;-43
2022/10/20 02:28:43;;;;;;;22.77;7.25;;;;;;;13.32;79.13;99588.41;5041399;28;20103;-43
2022/10/20 02:31:10;;;;;;;27.50;7.65;;;;;;;13.30;79.27;99581.50;5039217;28;20081;-44
2022/10/20 02:33:38;;;;;;;22.30;5.95;;;;;;;13.33;78.44;99582.31;5037680;28;20167;-43
2022/10/20 02:36:11;;;;;;;25.23;6.90;;;;;;;13.32;79.41;99575.41;5045471;28;20596;-45
2022/10/20 02:38:37;;;;;;;25.95;6.45;;;;;;;13.31;78.48;99573.69;5042698;28;20072;-43
2022/10/20 02:41:04;;;;;;;23.58;7.70;;;;;;;13.33;79.11;99571.91;5042507;28;20084;-42
2022/10/20 02:43:31;;;;;;;21.00;7.28;;;;;;;13.34;79.27;99568.41;5037723;28;20415;-43
2022/10/20 02:45:57;;;;;;;27.38;6.90;;;;;;;13.36;79.64;99565.78;5041719;28;20501;-42
2022/10/20 02:48:24;;;;;;;27.25;8.60;;;;;;;13.40;78.88;99561.38;5042624;28;20045;-43
2022/10/20 02:50:51;;;;;;;26.38;6.32;;;;;;;13.34;79.09;99558.00;5042522;28;20144;-43
2022/10/20 02:53:17;;;;;;;24.75;7.10;;;;;;;13.36;79.51;99561.44;5042907;28;20049;-42
2022/10/20 02:55:44;;;;;;;23.73;6.80;;;;;;;13.34;79.41;99558.00;5042351;28;20803;-42
2022/10/20 02:58:11;;;;;;;35.20;7.40;;;;;;;13.43;78.68;99561.28;5041766;28;20140;-43
2022/10/20 03:00:37;;;;;;;27.65;7.30;;;;;;;13.41;79.54;99568.28;5041873;28;20136;-42
2022/10/20 03:03:04;;;;;;;28.40;7.10;;;;;;;13.45;79.43;99562.13;5043007;28;20049;-46
2022/10/20 03:05:31;;;;;;;19.83;7.30;;;;;;;13.46;79.65;99556.03;5042971;28;20585;-41
2022/10/20 03:07:57;;;;;;;27.05;7.13;;;;;;;13.45;79.85;99567.34;5041718;28;20140;-42
2022/10/20 03:10:24;;;;;;;27.95;9.13;;;;;;;13.46;78.82;99566.44;5041740;28;20520;-42
2022/10/20 03:12:50;;;;;;;19.70;6.57;;;;;;;13.47;79.50;99562.94;5041552;28;20106;-44
2022/10/20 03:15:17;;;;;;;29.15;8.07;;;;;;;13.53;78.45;99557.63;5044142;28;20065;-41
2022/10/20 03:17:43;;;;;;;22.85;7.97;;;;;;;13.55;79.25;99555.88;5037112;28;20053;-43
2022/10/20 03:20:10;;;;;;;32.25;8.30;;;;;;;13.56;78.41;99554.97;5029969;28;20049;-44
2022/10/20 03:22:37;;;;;;;30.60;8.35;;;;;;;13.59;79.19;99557.50;5027062;28;20142;-43
2022/10/20 03:25:04;;;;;;;26.80;7.65;;;;;;;13.60;78.75;99551.41;5028612;28;20049;-44
2022/10/20 03:27:30;;;;;;;29.70;9.50;;;;;;;13.58;79.38;99555.78;5028467;28;20077;-43
2022/10/20 03:29:57;;;;;;;24.33;8.27;;;;;;;13.55;79.18;99542.84;5028622;28;20589;-44
2022/10/20 03:32:24;;;;;;;21.65;7.45;;;;;;;13.58;79.57;99534.97;5030035;28;20041;-45
2022/10/20 03:34:50;;;;;;;24.90;8.75;;;;;;;13.51;80.18;99528.19;5029480;28;20069;-45
2022/10/20 03:37:17;;;;;;;22.10;8.05;;;;;;;13.59;78.72;99539.28;5025822;28;20049;-45
2022/10/20 03:39:44;;;;;;;25.90;7.78;;;;;;;13.58;79.59;99550.56;5025468;28;20122;-43
2022/10/20 03:42:10;;;;;;;26.75;7.95;;;;;;;13.61;79.84;99545.31;5027473;28;20136;-42
2022/10/20 03:44:38;;;;;;;25.55;8.27;;;;;;;13.61;78.92;99542.69;5028919;28;20183;-45
2022/10/20 03:47:05;;;;;;;28.05;7.82;;;;;;;13.60;79.93;99542.72;5027826;28;20052;-43
2022/10/20 03:49:32;;;;;;;34.35;8.77;;;;;;;13.61;79.27;99540.09;5031418;28;20075;-45
2022/10/20 03:51:59;;;;;;;22.42;7.90;;;;;;;13.60;79.81;99542.72;5028033;28;20045;-45
2022/10/20 03:54:26;;;;;;;31.35;9.55;;;;;;;13.62;80.30;99546.16;5027749;28;20128;-43
2022/10/20 03:56:52;;;;;;;28.60;8.02;;;;;;;13.65;79.37;99532.22;5028217;28;20045;-43
2022/10/20 03:59:19;;;;;;;31.27;8.85;;;;;;;13.65;79.55;99532.22;5027948;28;20041;-43
2022/10/20 04:01:46;;;;;;;29.52;8.40;;;;;;;13.72;79.77;99515.56;5026407;28;20136;-44
2022/10/20 04:04:13;;;;;;;29.08;9.35;;;;;;;13.74;78.81;99512.03;5028555;28;20492;-42
2022/10/20 04:06:40;;;;;;;33.78;9.77;;;;;;;13.80;79.15;99507.56;5027081;28;20085;-44
2022/10/20 04:09:07;;;;;;;26.95;9.68;;;;;;;13.84;78.52;99507.47;5028093;28;20111;-43
2022/10/20 04:11:33;;;;;;;29.20;8.70;;;;;;;13.86;78.65;99513.50;5027540;28;20072;-45
2022/10/20 04:14:00;;;;;;;31.27;9.18;;;;;;;13.88;78.57;99501.28;5028409;28;20060;-42
2022/10/20 04:16:26;;;;;;;29.40;8.68;;;;;;;13.90;78.24;99498.63;5025151;28;20049;-43
2022/10/20 04:18:54;;;;;;;32.35;8.95;;;;;;;13.88;78.23;99485.66;5025749;28;20553;-43
2022/10/20 04:21:21;;;;;;;38.38;9.95;;;;;;;13.91;78.57;99486.50;5027589;28;20080;-43
2022/10/20 04:23:48;;;;;;;28.88;8.98;;;;;;;13.92;77.76;99488.19;5023345;28;20041;-43
2022/10/20 04:26:15;;;;;;;36.00;10.10;;;;;;;13.93;78.71;99487.28;5027868;28;20045;-44
2022/10/20 04:28:42;;;;;;;32.42;9.88;;;;;;;13.95;78.00;99490.72;5004941;28;20145;-43
2022/10/20 04:31:08;;;;;;;30.30;8.88;;;;;;;13.97;78.69;99481.97;5020745;28;20049;-43
2022/10/20 04:33:35;;;;;;;37.58;9.73;;;;;;;13.99;78.50;99476.72;5027469;28;20053;-43
2022/10/20 04:36:06;;;;;;;32.47;9.48;;;;;;;13.99;78.02;99472.34;5027154;28;20140;-43
2022/10/20 04:38:34;;;;;;;27.48;9.13;;;;;;;14.00;77.92;99479.28;5025089;28;20061;-43
2022/10/20 04:41:03;;;;;;;30.27;8.50;;;;;;;14.02;78.28;99481.84;5028526;28;20084;-43
2022/10/20 04:43:30;;;;;;;29.50;8.98;;;;;;;14.02;77.59;99481.84;5023529;28;20060;-43
2022/10/20 04:46:00;;;;;;;31.25;9.38;;;;;;;14.03;77.46;99472.28;5026188;28;20133;-42
2022/10/20 04:48:32;;;;;;;23.15;8.00;;;;;;;14.02;77.26;99476.66;5025853;28;20045;-43
2022/10/20 04:51:05;;;;;;;32.15;8.13;;;;;;;14.03;77.56;99467.94;5028800;28;20578;-43
2022/10/20 04:53:32;;;;;;;29.48;8.75;;;;;;;14.04;77.80;99467.03;5026345;28;20103;-43
2022/10/20 04:55:59;;;;;;;25.75;8.35;;;;;;;14.04;77.05;99453.16;5025895;28;20099;-45
2022/10/20 04:58:26;;;;;;;34.95;8.40;;;;;;;14.05;77.68;99445.31;5026642;28;20064;-43
2022/10/20 05:00:53;;;;;;;31.00;8.27;;;;;;;14.04;77.01;99447.94;5026812;28;20164;-44
2022/10/20 05:03:20;;;;;;;31.95;7.97;;;;;;;14.04;77.49;99443.59;5027001;28;20725;-44
2022/10/20 05:05:47;;;;;;;31.70;8.02;;;;;;;14.03;77.81;99439.28;5026981;28;20103;-42
2022/10/20 05:08:14;;;;;;;29.63;8.38;;;;;;;14.03;77.89;99441.91;5027316;28;20042;-43
2022/10/20 05:10:40;;;;;;;37.92;8.10;;;;;;;14.05;77.57;99439.25;5026878;28;20076;-42
2022/10/20 05:13:07;;;;;;;40.50;9.57;;;;;;;14.05;77.40;99439.25;5022359;28;20057;-43
2022/10/20 05:15:33;;;;;;;35.92;9.02;;;;;;;14.05;77.23;99439.25;5027022;28;20045;-45
2022/10/20 05:18:00;;;;;;;37.65;8.32;;;;;;;14.05;77.99;99434.06;5026071;28;20140;-45
2022/10/20 05:20:27;;;;;;;30.60;8.55;;;;;;;14.05;77.32;99436.66;5026195;28;20128;-43
2022/10/20 05:22:58;;;;;;;42.95;9.07;;;;;;;14.05;77.30;99423.63;5027334;28;20132;-45
2022/10/20 05:25:25;;;;;;;38.60;9.35;;;;;;;14.06;77.70;99418.38;5026204;28;20132;-43
2022/10/20 05:28:07;;;;;;;32.85;8.82;;;;;;;14.06;77.34;99418.38;5025085;28;20176;-42
2022/10/20 05:30:34;;;;;;;29.38;8.20;;;;;;;14.06;77.13;99427.94;5025932;28;20563;-43
2022/10/20 05:33:01;;;;;;;22.80;8.55;;;;;;;14.05;77.53;99419.25;5022031;28;20084;-44
2022/10/20 05:35:28;;;;;;;32.60;8.80;;;;;;;14.07;77.17;99417.50;5023502;28;20072;-43
2022/10/20 05:37:55;;;;;;;31.27;8.25;;;;;;;14.07;77.46;99416.63;5023521;28;20033;-43
2022/10/20 05:40:23;;;;;;;22.50;7.90;;;;;;;14.06;76.79;99407.09;5025510;28;20133;-42
2022/10/20 05:42:50;;;;;;;39.25;9.13;;;;;;;14.06;77.43;99413.19;5023641;28;20073;-43
2022/10/20 05:45:16;;;;;;;25.02;8.15;;;;;;;14.07;77.09;99407.06;5027778;28;20050;-53
2022/10/20 05:47:43;;;;;;;27.60;8.90;;;;;;;14.07;77.42;99399.25;5023963;28;20128;-43
2022/10/20 05:50:10;;;;;;;30.15;8.77;;;;;;;14.07;77.21;99396.66;5024862;28;20107;-43
2022/10/20 05:52:36;;;;;;;31.42;9.38;;;;;;;14.07;77.35;99396.66;5026217;28;20104;-42
2022/10/20 05:55:04;;;;;;;30.10;9.00;;;;;;;14.08;76.87;99393.16;5022576;28;20491;-44
2022/10/20 05:57:31;;;;;;;35.78;8.45;;;;;;;14.08;77.01;99387.94;5027132;28;20037;-44
2022/10/20 05:59:57;;;;;;;30.42;8.75;;;;;;;14.07;77.30;99386.25;5027044;28;20049;-43
2022/10/20 06:02:24;;;;;;;27.08;9.55;;;;;;;14.07;77.12;99380.16;5026606;28;20077;-42
2022/10/20 06:04:50;;;;;;;37.97;9.40;;;;;;;14.08;77.67;99364.50;5025448;28;20072;-42
2022/10/20 06:07:17;;;;;;;30.65;8.82;;;;;;;14.08;77.76;99361.91;5025738;28;20145;-43
2022/10/20 06:09:44;;;;;;;35.58;9.70;;;;;;;14.09;77.25;99367.97;5026354;28;20132;-42
2022/10/20 06:12:10;;;;;;;33.80;8.32;;;;;;;14.08;77.38;99377.53;5026112;28;20049;-42
2022/10/20 06:14:37;;;;;;;32.53;9.50;;;;;;;14.08;77.15;99372.31;5027049;28;20080;-42
2022/10/20 06:17:03;;;;;;;25.33;8.30;;;;;;;14.07;77.38;99375.81;5026603;28;20077;-41
2022/10/20 06:19:30;;;;;;;34.25;8.90;;;;;;;14.08;77.66;99374.09;5023563;28;20140;-43
2022/10/20 06:21:57;;;;;;;30.50;8.43;;;;;;;14.07;77.74;99380.16;5024914;28;20084;-44
2022/10/20 06:24:31;;;;;;;29.90;8.80;;;;;;;14.06;77.68;99381.94;5025865;28;20041;-44
2022/10/20 06:26:57;;;;;;;32.22;8.80;;;;;;;14.05;77.75;99375.00;5027448;28;20048;-43
2022/10/20 06:29:24;;;;;;;25.98;8.85;;;;;;;14.00;77.06;99371.69;5025217;28;20496;-42
2022/10/20 06:31:51;;;;;;;30.23;9.50;;;;;;;13.98;77.33;99360.44;5025179;28;20046;-44
2022/10/20 06:34:20;;;;;;;24.27;8.40;;;;;;;13.99;77.17;99355.19;5024530;28;20064;-44
2022/10/20 06:36:48;;;;;;;21.65;8.40;;;;;;;14.00;77.48;99351.72;5025830;28;20103;-46
2022/10/20 06:39:17;;;;;;;27.15;9.98;;;;;;;14.04;77.39;99343.78;5023319;28;20454;-44
2022/10/20 06:41:53;;;;;;;28.83;9.25;;;;;;;14.03;77.25;99342.09;5025133;28;20162;-42
2022/10/20 06:44:23;;;;;;;21.08;8.75;;;;;;;14.06;76.89;99337.69;5023275;28;20060;-45
2022/10/20 06:46:51;;;;;;;22.83;9.70;;;;;;;14.08;77.05;99340.25;5024129;28;20535;-43
2022/10/20 06:49:18;;;;;;;27.38;9.13;;;;;;;14.08;77.57;99330.66;5025795;28;20544;-43
2022/10/20 06:51:45;;;;;;;25.58;8.68;;;;;;;14.08;76.93;99330.66;5022987;28;20045;-44
2022/10/20 06:54:11;;;;;;;26.17;8.18;;;;;;;14.08;77.59;99335.88;5029810;28;20103;-43
2022/10/20 06:56:39;;;;;;;39.95;8.10;;;;;;;14.06;76.88;99337.69;5030251;28;20042;-42
2022/10/20 06:59:06;;;;;;;28.17;8.63;;;;;;;14.01;77.33;99349.94;5028896;28;20042;-44
2022/10/20 07:01:35;;;;;;;16.60;7.63;;;;;;;13.97;77.49;99351.81;5026170;28;20049;-44
2022/10/20 07:04:05;;;;;;;19.08;7.55;;;;;;;13.94;77.18;99338.00;5027948;28;20104;-43
2022/10/20 07:06:33;;;;;;;;;;;;;;;13.75;77.85;99326.34;5025520;28;20041;-41
2022/10/20 07:09:00;;;;;;;17.85;7.72;;;;;;;13.88;78.31;99333.81;5027312;28;19964;-43
2022/10/20 07:11:28;;;;;;;20.73;8.43;;;;;;;13.94;77.75;99335.38;5029388;28;20103;-44
2022/10/20 07:13:57;;;;;;;20.73;7.78;;;;;;;13.94;77.36;99338.88;5028214;28;20059;-44
2022/10/20 07:16:26;;;;;;;20.98;8.18;;;;;;;13.95;77.89;99337.97;5024209;28;20045;-42
2022/10/20 07:18:53;;;;;;;18.92;7.10;;;;;;;13.98;77.60;99334.41;5029470;28;20081;-43
2022/10/20 07:21:22;;;;;;;22.20;7.90;;;;;;;14.00;77.41;99337.84;5028954;28;20046;-43
2022/10/20 07:23:50;;;;;;;18.55;7.80;;;;;;;14.00;77.70;99337.84;5028134;28;20050;-43
2022/10/20 07:26:20;;;;;;;20.85;7.88;;;;;;;14.03;78.03;99326.47;5027976;28;20053;-42
2022/10/20 07:28:49;;;;;;;21.10;7.70;;;;;;;14.05;77.60;99341.16;5029563;28;20077;-42
2022/10/20 07:31:25;;;;;;;19.35;7.85;;;;;;;14.08;76.75;99341.06;5026530;28;20143;-44
2022/10/20 07:33:52;;;;;;;19.45;7.18;;;;;;;14.09;77.71;99337.56;5029034;28;20128;-44
2022/10/20 07:36:41;;;;;;;17.77;6.97;;;;;;;14.12;77.26;99332.28;5028511;28;20477;-45
2022/10/20 07:39:10;;;;;;;18.02;7.65;;;;;;;14.12;77.72;99353.09;5026834;28;20053;-42
2022/10/20 07:41:38;;;;;;;23.45;7.85;;;;;;;14.11;77.67;99354.00;5027331;28;20513;-43
2022/10/20 07:44:06;;;;;;;18.65;7.55;;;;;;;14.11;77.21;99354.00;5029805;28;20059;-44
2022/10/20 07:46:33;;;;;;;17.63;7.50;;;;;;;14.11;77.78;99351.41;5024915;28;20110;-44
2022/10/20 07:49:00;;;;;;;17.77;7.28;;;;;;;14.11;77.76;99346.19;5026820;28;20503;-45
2022/10/20 07:51:46;;;;;;;18.33;6.95;;;;;;;14.11;77.92;99346.19;5029610;28;20045;-44
2022/10/20 07:54:13;;;;;;;19.77;8.00;;;;;;;14.13;78.19;99347.03;5029219;28;20060;-43
2022/10/20 07:56:41;;;;;;;16.13;6.70;;;;;;;14.17;78.50;99350.38;5028774;28;20069;-44
2022/10/20 07:59:09;;;;;;;15.82;6.75;;;;;;;14.19;78.40;99337.31;5025450;28;20041;-44
2022/10/20 08:01:36;;;;;;;17.55;7.65;;;;;;;14.23;77.87;99334.59;5028109;28;20077;-43
2022/10/20 08:04:03;;;;;;;17.63;7.32;;;;;;;14.27;78.12;99325.78;5027926;28;20695;-44
2022/10/20 08:06:30;;;;;;;18.08;7.82;;;;;;;14.30;77.52;99332.66;5028076;28;20072;-43
2022/10/20 08:08:57;;;;;;;19.23;7.40;;;;;;;14.30;77.73;99309.19;5026740;28;20077;-42
2022/10/20 08:11:24;;;;;;;21.02;8.02;;;;;;;14.34;78.07;99316.03;5030195;28;20051;-41
2022/10/20 08:13:51;;;;;;;18.42;7.35;;;;;;;14.36;77.88;99314.22;5025249;28;20049;-44
2022/10/20 08:16:17;;;;;;;19.88;7.47;;;;;;;14.38;77.79;99312.41;5027711;28;20041;-46
2022/10/20 08:19:00;;;;;;;18.27;6.88;;;;;;;14.42;77.71;99317.53;5023160;28;20688;-43
2022/10/20 08:21:40;;;;;;;18.73;8.00;;;;;;;14.45;77.87;99307.03;5026745;28;20049;-42
2022/10/20 08:24:07;;;;;;;19.27;7.90;;;;;;;14.49;78.28;99293.00;5025510;28;20080;-45
2022/10/20 08:26:34;;;;;;;16.58;6.35;;;;;;;14.50;77.54;99289.50;5021107;28;20049;-43
2022/10/20 08:29:01;;;;;;;15.10;6.53;;;;;;;14.50;77.81;99279.06;5026696;28;20397;-47
2022/10/20 08:31:28;;;;;;;17.27;7.22;;;;;;;14.51;77.91;99270.34;5027066;28;20132;-42
2022/10/20 08:33:55;;;;;;;17.73;7.40;;;;;;;14.51;77.77;99283.38;5027886;28;20073;-42
2022/10/20 08:36:22;;;;;;;19.70;7.57;;;;;;;14.53;77.38;99277.22;5025163;28;20554;-41
2022/10/20 08:38:48;;;;;;;14.68;6.30;;;;;;;14.56;78.08;99278.88;5023963;28;20136;-45
2022/10/20 08:41:22;;;;;;;16.52;6.95;;;;;;;14.56;77.29;99276.25;5024225;28;20081;-47
2022/10/20 08:43:51;;;;;;;20.63;6.78;;;;;;;14.58;77.46;99261.44;5021415;28;20113;-43
2022/10/20 08:46:22;;;;;;;17.27;6.50;;;;;;;14.57;77.32;99254.53;5028147;28;20073;-45
2022/10/20 08:48:49;;;;;;;14.85;6.35;;;;;;;14.57;77.81;99251.94;5025247;28;20037;-43
2022/10/20 08:51:19;;;;;;;17.80;8.38;;;;;;;14.60;77.97;99258.78;5027428;28;20048;-44
2022/10/20 08:53:49;;;;;;;19.45;8.05;;;;;;;14.62;78.12;99257.84;5027348;28;20579;-44
2022/10/20 08:56:17;;;;;;;;;;;;;;;14.52;78.47;99256.41;5027784;28;20127;-42
2022/10/20 08:58:45;;;;;;;18.30;7.35;;;;;;;14.63;78.00;99253.47;5027614;28;19924;-44
2022/10/20 09:01:22;;;;;;;19.23;8.27;;;;;;;14.67;77.78;99249.88;5025816;28;20042;-44
2022/10/20 09:03:55;;;;;;;18.85;7.88;;;;;;;14.70;78.25;99248.91;5026841;28;20049;-44
2022/10/20 09:06:22;;;;;;;20.15;8.13;;;;;;;14.73;78.05;99244.44;5022356;28;20048;-46
2022/10/20 09:08:50;;;;;;;16.08;7.00;;;;;;;14.76;78.01;99243.50;5026828;28;20125;-42
2022/10/20 09:11:22;;;;;;;19.45;7.78;;;;;;;14.82;78.00;99248.53;5025895;28;20499;-45
2022/10/20 09:13:49;;;;;;;20.65;7.65;;;;;;;14.84;77.59;99246.75;5020598;28;20549;-43
2022/10/20 09:16:24;;;;;;;24.48;9.05;;;;;;;14.88;77.81;99247.47;5024520;28;20053;-43
2022/10/20 09:19:17;;;;;;;26.58;7.97;;;;;;;14.90;78.40;99241.31;5028517;28;21184;-44
2022/10/20 09:21:46;;;;;;;28.98;8.63;;;;;;;14.96;77.88;99247.25;5026690;28;20136;-44
2022/10/20 09:24:13;;;;;;;29.95;9.38;;;;;;;14.97;77.42;99251.53;5027554;28;20049;-45
2022/10/20 09:26:44;;;;;;;25.98;8.48;;;;;;;15.02;77.81;99252.22;5027163;28;20049;-46
2022/10/20 09:29:35;;;;;;;28.30;8.82;;;;;;;15.02;77.94;99254.84;5025407;28;20041;-44
2022/10/20 09:32:01;;;;;;;31.67;9.73;;;;;;;15.06;78.30;99246.00;5025155;28;20128;-43
2022/10/20 09:34:48;;;;;;;34.22;8.82;;;;;;;15.09;78.44;99251.13;5026158;28;20045;-46
2022/10/20 09:37:18;;;;;;;27.45;9.32;;;;;;;15.12;77.76;99251.03;5026476;28;20053;-43
2022/10/20 09:42:26;;;;;;;30.45;9.43;;;;;;;15.16;78.31;99247.41;5117548;27;20673;-43
2022/10/20 09:45:05;;;;;;;32.33;11.63;;;;;;;15.14;78.27;99254.41;5059906;28;20171;-45
2022/10/20 09:47:33;;;;;;;33.05;11.18;;;;;;;15.19;78.32;99261.25;5057615;28;20045;-45
2022/10/20 09:50:03;;;;;;;29.45;11.10;;;;;;;15.21;78.08;99256.81;5060882;28;20408;-45
2022/10/20 09:52:33;;;;;;;38.03;12.25;;;;;;;15.22;78.19;99258.50;5061421;28;20044;-43
2022/10/20 09:55:06;;;;;;;28.33;10.68;;;;;;;15.23;78.42;99262.84;5058979;28;20045;-45
2022/10/20 09:57:33;;;;;;;30.33;12.13;;;;;;;15.24;77.90;99264.53;5058964;28;20075;-45
2022/10/20 10:00:00;;;;;;;31.27;12.50;;;;;;;15.25;77.77;99264.50;5062094;28;20043;-45
2022/10/20 10:02:46;;;;;;;34.72;12.20;;;;;;;15.25;77.88;99261.88;5059936;28;20132;-45
2022/10/20 10:05:18;;;;;;;38.00;12.27;;;;;;;15.25;77.88;99269.72;5064398;28;20083;-45
2022/10/20 10:07:56;;;;;;;31.92;11.40;;;;;;;15.22;78.42;99261.13;5057004;28;20552;-45
2022/10/20 10:10:26;;;;;;;31.08;11.43;;;;;;;15.22;78.11;99266.34;5058990;28;20041;-45
2022/10/20 10:12:56;;;;;;;27.77;10.32;;;;;;;15.22;78.64;99261.13;5058248;28;20123;-46
2022/10/20 10:15:26;;;;;;;30.52;11.43;;;;;;;15.21;78.37;99260.28;5039317;28;20061;-44
2022/10/20 10:17:53;;;;;;;36.20;11.50;;;;;;;15.20;78.90;99252.50;5059046;28;20500;-44
2022/10/20 10:25:53;;;;;;;47.05;14.15;;;;;;;15.53;78.68;99257.44;5056839;27;20399;-45
2022/10/20 10:33:41;;;;;;;34.58;9.27;;;;;;;15.29;79.31;99254.78;5061630;27;20129;-44
2022/10/20 10:36:26;;;;;;;32.67;9.65;;;;;;;15.29;79.21;99254.78;5001087;28;20076;-43
2022/10/20 10:38:53;;;;;;;30.85;9.48;;;;;;;15.28;78.92;99250.47;4997265;28;20073;-45
2022/10/20 10:41:34;;;;;;;27.23;8.90;;;;;;;15.28;79.57;99251.34;4997538;28;20568;-44
2022/10/20 10:47:03;;;;;;;29.08;8.88;;;;;;;15.19;78.94;99246.44;5095137;27;20581;-46
2022/10/20 10:49:34;;;;;;;;;;;;;;;15.05;79.83;99239.09;5057936;28;20111;-44
2022/10/20 10:55:04;;;;;;;22.63;9.70;;;;;;;15.14;78.69;99241.38;5071806;27;20127;-46
2022/10/20 11:00:57;;;;;;;22.73;8.13;;;;;;;15.19;78.73;99240.38;5077627;27;20292;-46
2022/10/20 11:03:55;;;;;;;24.83;8.02;;;;;;;15.16;78.65;99236.97;5059229;28;20056;-45
2022/10/20 11:06:43;;;;;;;23.50;7.93;;;;;;;15.20;78.65;99231.66;5052659;28;20455;-48
2022/10/20 11:17:52;;;;;;;24.45;8.43;;;;;;;15.24;78.70;99213.22;5110077;27;20129;-46
2022/10/20 11:20:28;;;;;;;21.50;8.52;;;;;;;15.27;78.82;99201.84;5057573;28;20049;-48
2022/10/20 11:23:26;;;;;;;22.33;8.40;;;;;;;15.24;79.13;99191.50;5059539;28;20467;-49
2022/10/20 11:26:18;;;;;;;20.40;8.05;;;;;;;15.25;78.81;99187.97;5057825;28;20045;-46
2022/10/20 11:28:48;;;;;;;18.67;7.63;;;;;;;15.34;78.57;99187.66;5062084;28;20101;-45
2022/10/20 11:31:40;;;;;;;20.83;8.38;;;;;;;15.31;79.10;99186.91;5060600;28;20055;-47
2022/10/20 11:40:05;;;;;;;34.70;14.75;;;;;;;15.50;78.92;99177.50;5050868;27;20397;-46
2022/10/20 11:45:30;;;;;;;24.65;8.75;;;;;;;15.48;78.61;99173.25;5097764;27;20126;-45
2022/10/20 11:48:10;;;;;;;21.15;7.10;;;;;;;15.49;78.95;99181.03;5058960;28;20119;-43
2022/10/20 11:50:39;;;;;;;16.02;6.07;;;;;;;15.51;79.07;99167.91;5059103;28;20052;-44
2022/10/20 12:04:27;;;;;;;12.88;5.47;;;;;;;15.53;78.68;99137.38;5103752;27;20127;-46
2022/10/20 12:15:59;;;;;;;62.70;24.60;;;;;;;15.60;77.97;99123.19;5032874;27;20471;-45
2022/10/20 12:26:37;;;;;;;13.18;7.88;;;;;;;15.59;78.25;99113.66;5092148;27;20130;-44
2022/10/20 12:34:59;;;;;;;93.60;30.38;;;;;;;15.65;78.19;99107.38;5098580;27;20561;-46
2022/10/20 12:37:28;;;;;;;;;;;;;;;15.54;78.49;99105.19;5004148;28;20513;-45
2022/10/20 12:40:00;;;;;;;23.98;10.80;;;;;;;15.66;78.08;99099.47;5007528;28;19935;-46
2022/10/20 12:42:31;;;;;;;15.38;6.47;;;;;;;15.71;78.27;99093.22;5014958;28;20132;-44
2022/10/20 12:47:48;;;;;;;10.00;6.93;;;;;;;15.77;78.15;99091.22;5068694;27;20132;-47
2022/10/20 12:53:26;;;;;;;9.05;4.38;;;;;;;15.84;78.08;99091.81;5056458;27;20127;-45
2022/10/20 12:56:13;;;;;;;12.45;5.32;;;;;;;15.93;77.94;99096.69;5023611;28;20445;-46
2022/10/20 12:59:19;;;;;;;11.82;5.60;;;;;;;16.04;78.06;99077.97;5024104;28;20058;-43
2022/10/20 13:05:22;;;;;;;16.48;7.63;;;;;;;16.43;78.12;99084.22;5071066;27;20135;-45
2022/10/20 13:18:28;;;;;;;9.80;5.18;;;;;;;16.89;77.16;99088.34;5064650;27;20403;-45
2022/10/20 13:20:58;;;;;;;8.00;3.85;;;;;;;16.77;77.39;99084.53;5041998;28;20135;-45
2022/10/20 13:26:27;;;;;;;8.40;3.72;;;;;;;16.68;77.63;99087.53;5091992;27;20629;-44
2022/10/20 13:28:57;;;;;;;4.13;2.08;;;;;;;16.63;77.31;99079.91;5071366;28;20131;-46
2022/10/20 13:39:29;;;;;;;7.47;3.33;;;;;;;16.39;76.48;99082.66;5059378;27;20129;-44
2022/10/20 13:52:45;;;;;;;13.10;5.60;;;;;;;16.03;76.58;99080.66;5041245;28;20571;-44
2022/10/20 13:55:18;;;;;;;13.20;5.88;;;;;;;15.97;76.39;99080.94;5017247;28;20052;-47
2022/10/20 13:57:50;;;;;;;9.13;4.90;;;;;;;15.91;76.60;99082.81;5016152;28;20560;-45
2022/10/20 14:00:26;;;;;;;8.57;4.03;;;;;;;15.86;76.24;99073.47;5003921;28;20050;-47
2022/10/20 14:03:00;;;;;;;12.95;6.05;;;;;;;15.84;76.56;99078.75;5012272;28;20619;-43